KIFP/IFP METAR and TAF weather

Enter ICAO airport designator
Station Type Date Time Source
KIFP METAR 2019/04/24 15:51 UTC NOAA

KIFP 241551Z 00000KT 20SM SKC 25/02 A2993


Station Type Date Time Source
KIFP Decoded METAR 2019/04/24 15:51 UTC NOAA

Bullhead City, Laughlin/Bullhead International Airport, AZ, United States (KIFP) 35-09-27N 114-33-34W
Apr 24, 2019 - 11:51 AM EDT / 2019.04.24 1551 UTC
Wind: Calm:0
Visibility: 20 mile(s):0
Sky conditions: clear
Temperature: 77 F (25 C)
Dew Point: 35 F (2 C)
Relative Humidity: 22%
Pressure (altimeter): 29.93 in. Hg (1013 hPa)
ob: KIFP 241551Z 00000KT 20SM SKC 25/02 A2993
cycle: 16

Station Type Date Time Source
KIFP TAF 2019/04/24 12:22 UTC NOAA

TAF KIFP 241120Z 2412/2512 01011KT P6SM SKC
FM241500 35015G23KT P6SM SKC
FM242300 35011KT P6SM SKC
FM250200 VRB05KT P6SM SKC

Example: see airport list